Friday, October 19, 2018, 12:41 AM EDT
Back to Local

KIWI, Wiscasset Municipal Airport

Location: Wiscasset, ME, United States Lat: 43.967
Local Time: 12:41 AM EDT ( 4:41 GMT) Lon: -69.717
Time Zone: US/Eastern Elev: 68 ft

Show me the last for .
Show Decoded

2018-10-18 23:53 METAR KIWI 190353Z AUTO 00000KT 10SM CLR M03/M05 A3023 RMK AO2 SLP235 T10281050
                 =
2018-10-18 22:53 METAR KIWI 190253Z AUTO 00000KT 10SM CLR M02/M05 A3022 RMK AO2 SLP234 T10171050
                 50007 =
2018-10-18 21:53 METAR KIWI 190153Z AUTO 00000KT 10SM CLR 02/M08 A3023 RMK AO2 SLP236 T00171078 =
2018-10-18 20:53 METAR KIWI 190053Z AUTO 27004KT 10SM CLR 02/M07 A3022 RMK AO2 SLP233 T00171072 =
2018-10-18 19:53 METAR KIWI 182353Z AUTO VRB06G14KT 10SM CLR 02/M07 A3020 RMK AO2 SLP227
                 T00221072 10056 20017 51019 =
2018-10-18 18:53 METAR KIWI 182253Z AUTO VRB05KT 10SM CLR 03/M08 A3020 RMK AO2 SLP225 T00281078 =
2018-10-18 17:53 METAR KIWI 182153Z AUTO 28008KT 240V330 10SM CLR 03/M08 A3017 RMK AO2 SLP216
                 T00331083 =
2018-10-18 16:53 METAR KIWI 182053Z AUTO VRB04KT 10SM CLR 04/M08 A3014 RMK AO2 SLP208 T00441083
                 51013 =
2018-10-18 15:53 METAR KIWI 181953Z AUTO 30012G20KT 10SM SCT065 05/M10 A3013 RMK AO2 SLP204
                 T00501100 =
2018-10-18 14:53 METAR KIWI 181853Z AUTO 31010G19KT 270V020 10SM FEW065 05/M09 A3012 RMK AO2
                 SLP200 T00501089 =
2018-10-18 13:53 METAR KIWI 181753Z AUTO 29008G18KT 240V340 10SM FEW060 04/M08 A3011 RMK AO2
                 SLP195 T00441078 10061 20017 53005 =
2018-10-18 12:53 METAR KIWI 181653Z AUTO 32008G19KT 270V010 10SM CLR 05/M08 A3010 RMK AO2 SLP193
                 T00501078 =
2018-10-18 11:53 METAR KIWI 181553Z AUTO 29009G21KT 270V340 10SM CLR 06/M07 A3009 RMK AO2 PK WND
                 30027/1538 SLP188 T00561072 =
2018-10-18 10:53 METAR KIWI 181453Z AUTO 31011G20KT 270V340 10SM FEW050 05/M07 A3009 RMK AO2 PK
                 WND 26027/1423 SLP189 T00501072 52015 =
2018-10-18 09:53 METAR KIWI 181353Z AUTO 28009G21KT 240V330 10SM SCT050 04/M06 A3007 RMK AO2
                 SLP183 T00391061 =
2018-10-18 08:53 METAR KIWI 181253Z AUTO 30007KT 260V340 10SM FEW043 03/M04 A3006 RMK AO2 SLP181
                 T00331039 =
2018-10-18 07:53 METAR KIWI 181153Z AUTO 29007KT 240V320 10SM CLR 02/M03 A3005 RMK AO2 SLP174
                 T00171033 10044 20006 53031 =
2018-10-18 06:53 METAR KIWI 181053Z AUTO VRB06KT 10SM CLR 01/M03 A3001 RMK AO2 SLP162 T00111033 =
2018-10-18 05:53 METAR KIWI 180953Z AUTO 27007KT 10SM FEW100 02/M03 A2999 RMK AO2 SLP154
                 T00171028 =
2018-10-18 04:53 METAR KIWI 180853Z AUTO 29004KT 10SM SCT110 02/M02 A2995 RMK AO2 SLP143
                 T00171022 53030 =
2018-10-18 03:53 METAR KIWI 180753Z AUTO 10SM SCT037 SCT045 BKN055 03/M02 A2992 RMK AO2 SLP133
                 T00331022 =
2018-10-18 02:53 METAR KIWI 180653Z AUTO VRB04KT 10SM CLR 03/M03 A2989 RMK AO2 SLP122 T00331028 =
2018-10-18 01:53 METAR KIWI 180553Z AUTO VRB05KT 10SM SCT120 04/M04 A2987 RMK AO2 SLP113
                 T00441039 10072 20033 53007 =
2018-10-18 00:53 METAR KIWI 180453Z AUTO VRB05KT 10SM SCT060 BKN110 05/M04 A2986 RMK AO2 SLP112
                 T00501039 401440017 =

Support USWX by starting your Amazon purchase here.